sensor_id;sensor_type;location;lat;lon;timestamp;temperature;humidity
22678;DHT22;26259;50.214;18.620;2023-02-21T00:02:12;10.50;99.90
22678;DHT22;26259;50.214;18.620;2023-02-21T00:04:56;10.50;99.90
22678;DHT22;26259;50.214;18.620;2023-02-21T00:07:40;10.60;99.90
22678;DHT22;26259;50.214;18.620;2023-02-21T00:10:25;10.60;99.90
22678;DHT22;26259;50.214;18.620;2023-02-21T00:13:09;10.70;99.90
22678;DHT22;26259;50.214;18.620;2023-02-21T00:15:54;10.70;99.90
22678;DHT22;26259;50.214;18.620;2023-02-21T00:18:39;10.60;99.90
22678;DHT22;26259;50.214;18.620;2023-02-21T00:21:24;10.60;99.90
22678;DHT22;26259;50.214;18.620;2023-02-21T00:24:14;10.60;99.90
22678;DHT22;26259;50.214;18.620;2023-02-21T00:26:59;10.60;99.90
22678;DHT22;26259;50.214;18.620;2023-02-21T00:29:45;10.60;99.90
22678;DHT22;26259;50.214;18.620;2023-02-21T00:32:29;10.60;99.90
22678;DHT22;26259;50.214;18.620;2023-02-21T00:35:14;10.50;99.90
22678;DHT22;26259;50.214;18.620;2023-02-21T00:37:58;10.50;99.90
22678;DHT22;26259;50.214;18.620;2023-02-21T00:40:42;10.40;99.90
22678;DHT22;26259;50.214;18.620;2023-02-21T00:43:31;10.40;99.90
22678;DHT22;26259;50.214;18.620;2023-02-21T00:46:16;10.30;99.90
22678;DHT22;26259;50.214;18.620;2023-02-21T00:49:00;10.30;99.90
22678;DHT22;26259;50.214;18.620;2023-02-21T00:51:45;10.30;99.90
22678;DHT22;26259;50.214;18.620;2023-02-21T00:54:29;10.30;99.90
22678;DHT22;26259;50.214;18.620;2023-02-21T00:57:14;10.30;99.90
22678;DHT22;26259;50.214;18.620;2023-02-21T00:59:58;10.30;99.90
22678;DHT22;26259;50.214;18.620;2023-02-21T01:02:42;10.30;99.90
22678;DHT22;26259;50.214;18.620;2023-02-21T01:05:26;10.30;99.90
22678;DHT22;26259;50.214;18.620;2023-02-21T01:08:17;10.30;99.90
22678;DHT22;26259;50.214;18.620;2023-02-21T01:11:01;10.30;99.90
22678;DHT22;26259;50.214;18.620;2023-02-21T01:13:46;10.30;99.90
22678;DHT22;26259;50.214;18.620;2023-02-21T01:26:44;10.30;99.90
22678;DHT22;26259;50.214;18.620;2023-02-21T01:29:29;10.30;99.90
22678;DHT22;26259;50.214;18.620;2023-02-21T01:42:31;10.20;99.90
22678;DHT22;26259;50.214;18.620;2023-02-21T01:50:41;10.20;99.90
22678;DHT22;26259;50.214;18.620;2023-02-21T01:53:25;10.20;99.90
22678;DHT22;26259;50.214;18.620;2023-02-21T02:01:22;10.20;99.90
22678;DHT22;26259;50.214;18.620;2023-02-21T02:04:08;10.20;99.90
22678;DHT22;26259;50.214;18.620;2023-02-21T02:06:52;10.20;99.90
22678;DHT22;26259;50.214;18.620;2023-02-21T02:09:36;10.10;99.90
22678;DHT22;26259;50.214;18.620;2023-02-21T02:12:56;10.10;99.90
22678;DHT22;26259;50.214;18.620;2023-02-21T02:18:29;9.90;99.90
22678;DHT22;26259;50.214;18.620;2023-02-21T02:35:00;8.90;99.90
22678;DHT22;26259;50.214;18.620;2023-02-21T02:37:32;8.90;99.90
22678;DHT22;26259;50.214;18.620;2023-02-21T02:46:04;8.70;99.90
22678;DHT22;26259;50.214;18.620;2023-02-21T02:48:37;8.60;99.90
22678;DHT22;26259;50.214;18.620;2023-02-21T02:51:11;8.60;99.90
22678;DHT22;26259;50.214;18.620;2023-02-21T02:53:37;8.50;99.90
22678;DHT22;26259;50.214;18.620;2023-02-21T02:56:06;8.40;99.90
22678;DHT22;26259;50.214;18.620;2023-02-21T02:58:42;8.40;99.90
22678;DHT22;26259;50.214;18.620;2023-02-21T03:04:05;8.30;99.90
22678;DHT22;26259;50.214;18.620;2023-02-21T03:12:32;8.20;99.90
22678;DHT22;26259;50.214;18.620;2023-02-21T03:14:59;8.20;99.90
22678;DHT22;26259;50.214;18.620;2023-02-21T03:17:29;8.30;99.90
22678;DHT22;26259;50.214;18.620;2023-02-21T03:19:57;8.20;99.90
22678;DHT22;26259;50.214;18.620;2023-02-21T03:22:25;8.30;99.90
22678;DHT22;26259;50.214;18.620;2023-02-21T03:24:55;8.30;99.90
22678;DHT22;26259;50.214;18.620;2023-02-21T03:27:23;8.40;99.90
22678;DHT22;26259;50.214;18.620;2023-02-21T03:29:50;8.30;99.90
22678;DHT22;26259;50.214;18.620;2023-02-21T03:32:41;8.30;99.90
22678;DHT22;26259;50.214;18.620;2023-02-21T03:35:08;8.30;99.90
22678;DHT22;26259;50.214;18.620;2023-02-21T03:37:36;8.30;99.90
22678;DHT22;26259;50.214;18.620;2023-02-21T03:40:15;8.30;99.90
22678;DHT22;26259;50.214;18.620;2023-02-21T03:42:41;8.20;99.90
22678;DHT22;26259;50.214;18.620;2023-02-21T03:45:07;8.20;99.90
22678;DHT22;26259;50.214;18.620;2023-02-21T03:47:32;8.20;99.90
22678;DHT22;26259;50.214;18.620;2023-02-21T03:49:58;8.20;99.90
22678;DHT22;26259;50.214;18.620;2023-02-21T03:52:24;8.20;99.90
22678;DHT22;26259;50.214;18.620;2023-02-21T03:54:49;8.10;99.90
22678;DHT22;26259;50.214;18.620;2023-02-21T03:57:15;8.20;99.90
22678;DHT22;26259;50.214;18.620;2023-02-21T03:59:41;8.20;99.90
22678;DHT22;26259;50.214;18.620;2023-02-21T04:02:07;8.10;99.90
22678;DHT22;26259;50.214;18.620;2023-02-21T04:04:33;8.20;99.90
22678;DHT22;26259;50.214;18.620;2023-02-21T04:06:59;8.20;99.90
22678;DHT22;26259;50.214;18.620;2023-02-21T04:09:24;8.10;99.90
22678;DHT22;26259;50.214;18.620;2023-02-21T04:11:51;8.10;99.90
22678;DHT22;26259;50.214;18.620;2023-02-21T04:14:16;8.10;99.90
22678;DHT22;26259;50.214;18.620;2023-02-21T04:16:42;8.20;99.90
22678;DHT22;26259;50.214;18.620;2023-02-21T04:19:08;8.20;99.90
22678;DHT22;26259;50.214;18.620;2023-02-21T04:21:34;8.10;99.90
22678;DHT22;26259;50.214;18.620;2023-02-21T04:23:59;8.20;99.90
22678;DHT22;26259;50.214;18.620;2023-02-21T04:26:25;8.20;99.90
22678;DHT22;26259;50.214;18.620;2023-02-21T04:28:51;8.20;99.90
22678;DHT22;26259;50.214;18.620;2023-02-21T04:31:17;8.30;99.90
22678;DHT22;26259;50.214;18.620;2023-02-21T04:33:43;8.30;99.90
22678;DHT22;26259;50.214;18.620;2023-02-21T04:36:09;8.30;99.90
22678;DHT22;26259;50.214;18.620;2023-02-21T04:38:35;8.30;99.90
22678;DHT22;26259;50.214;18.620;2023-02-21T04:41:04;8.30;99.90
22678;DHT22;26259;50.214;18.620;2023-02-21T04:43:30;8.40;99.90
22678;DHT22;26259;50.214;18.620;2023-02-21T04:45:55;8.40;99.90
22678;DHT22;26259;50.214;18.620;2023-02-21T04:48:21;8.40;99.90
22678;DHT22;26259;50.214;18.620;2023-02-21T04:50:47;8.50;99.90
22678;DHT22;26259;50.214;18.620;2023-02-21T04:53:13;8.60;99.90
22678;DHT22;26259;50.214;18.620;2023-02-21T04:55:38;8.60;99.90
22678;DHT22;26259;50.214;18.620;2023-02-21T04:58:04;8.60;99.90
22678;DHT22;26259;50.214;18.620;2023-02-21T05:00:30;8.60;99.90
22678;DHT22;26259;50.214;18.620;2023-02-21T05:02:56;8.60;99.90
22678;DHT22;26259;50.214;18.620;2023-02-21T05:05:21;8.60;99.90
22678;DHT22;26259;50.214;18.620;2023-02-21T05:07:47;8.60;99.90
22678;DHT22;26259;50.214;18.620;2023-02-21T05:10:14;8.60;99.90
22678;DHT22;26259;50.214;18.620;2023-02-21T05:12:40;8.60;99.90
22678;DHT22;26259;50.214;18.620;2023-02-21T05:15:06;8.50;99.90
22678;DHT22;26259;50.214;18.620;2023-02-21T05:17:32;8.60;99.90
22678;DHT22;26259;50.214;18.620;2023-02-21T05:19:58;8.60;99.90
22678;DHT22;26259;50.214;18.620;2023-02-21T05:22:23;8.50;99.90
22678;DHT22;26259;50.214;18.620;2023-02-21T05:24:49;8.50;99.90
22678;DHT22;26259;50.214;18.620;2023-02-21T05:27:18;8.50;99.90
22678;DHT22;26259;50.214;18.620;2023-02-21T05:29:51;8.50;99.90
22678;DHT22;26259;50.214;18.620;2023-02-21T05:32:21;8.40;99.90
22678;DHT22;26259;50.214;18.620;2023-02-21T05:34:47;8.40;99.90
22678;DHT22;26259;50.214;18.620;2023-02-21T05:37:14;8.40;99.90
22678;DHT22;26259;50.214;18.620;2023-02-21T05:39:39;8.40;99.90
22678;DHT22;26259;50.214;18.620;2023-02-21T05:42:05;8.30;99.90
22678;DHT22;26259;50.214;18.620;2023-02-21T05:44:32;8.30;99.90
22678;DHT22;26259;50.214;18.620;2023-02-21T05:46:57;8.30;99.90
22678;DHT22;26259;50.214;18.620;2023-02-21T05:49:23;8.20;99.90
22678;DHT22;26259;50.214;18.620;2023-02-21T05:51:49;8.20;99.90
22678;DHT22;26259;50.214;18.620;2023-02-21T05:54:17;8.20;99.90
22678;DHT22;26259;50.214;18.620;2023-02-21T05:56:44;8.20;99.90
22678;DHT22;26259;50.214;18.620;2023-02-21T05:59:11;8.20;99.90
22678;DHT22;26259;50.214;18.620;2023-02-21T06:01:37;8.20;99.90
22678;DHT22;26259;50.214;18.620;2023-02-21T06:04:03;8.20;99.90
22678;DHT22;26259;50.214;18.620;2023-02-21T06:06:29;8.20;99.90
22678;DHT22;26259;50.214;18.620;2023-02-21T06:08:55;8.20;99.90
22678;DHT22;26259;50.214;18.620;2023-02-21T06:11:32;8.20;99.90
22678;DHT22;26259;50.214;18.620;2023-02-21T06:13:59;8.20;99.90
22678;DHT22;26259;50.214;18.620;2023-02-21T06:16:26;8.20;99.90
22678;DHT22;26259;50.214;18.620;2023-02-21T06:18:55;8.20;99.90
22678;DHT22;26259;50.214;18.620;2023-02-21T06:21:21;8.20;99.90
22678;DHT22;26259;50.214;18.620;2023-02-21T06:23:47;8.30;99.90
22678;DHT22;26259;50.214;18.620;2023-02-21T06:26:14;8.30;99.90
22678;DHT22;26259;50.214;18.620;2023-02-21T06:28:40;8.40;99.90
22678;DHT22;26259;50.214;18.620;2023-02-21T06:31:06;8.40;99.90
22678;DHT22;26259;50.214;18.620;2023-02-21T06:33:32;8.40;99.90
22678;DHT22;26259;50.214;18.620;2023-02-21T06:35:57;8.40;99.90
22678;DHT22;26259;50.214;18.620;2023-02-21T06:38:23;8.50;99.90
22678;DHT22;26259;50.214;18.620;2023-02-21T06:40:48;8.60;99.90
22678;DHT22;26259;50.214;18.620;2023-02-21T06:43:14;8.60;99.90
22678;DHT22;26259;50.214;18.620;2023-02-21T06:45:40;8.60;99.90
22678;DHT22;26259;50.214;18.620;2023-02-21T06:48:05;8.60;99.90
22678;DHT22;26259;50.214;18.620;2023-02-21T06:50:32;8.70;99.90
22678;DHT22;26259;50.214;18.620;2023-02-21T06:52:59;8.70;99.90
22678;DHT22;26259;50.214;18.620;2023-02-21T06:55:25;8.70;99.90
22678;DHT22;26259;50.214;18.620;2023-02-21T06:57:50;8.70;99.90
22678;DHT22;26259;50.214;18.620;2023-02-21T07:00:16;8.70;99.90
22678;DHT22;26259;50.214;18.620;2023-02-21T07:02:42;8.70;99.90
22678;DHT22;26259;50.214;18.620;2023-02-21T07:05:09;8.70;99.90
22678;DHT22;26259;50.214;18.620;2023-02-21T07:07:35;8.70;99.90
22678;DHT22;26259;50.214;18.620;2023-02-21T07:10:00;8.70;99.90
22678;DHT22;26259;50.214;18.620;2023-02-21T07:12:26;8.70;99.90
22678;DHT22;26259;50.214;18.620;2023-02-21T07:14:53;8.70;99.90
22678;DHT22;26259;50.214;18.620;2023-02-21T07:17:18;8.80;99.90
22678;DHT22;26259;50.214;18.620;2023-02-21T07:19:44;8.80;99.90
22678;DHT22;26259;50.214;18.620;2023-02-21T07:22:10;8.80;99.90
22678;DHT22;26259;50.214;18.620;2023-02-21T07:24:36;8.80;99.90
22678;DHT22;26259;50.214;18.620;2023-02-21T07:27:01;8.80;99.90
22678;DHT22;26259;50.214;18.620;2023-02-21T07:29:27;8.80;99.90
22678;DHT22;26259;50.214;18.620;2023-02-21T07:31:53;8.80;99.90
22678;DHT22;26259;50.214;18.620;2023-02-21T07:34:18;8.80;99.90
22678;DHT22;26259;50.214;18.620;2023-02-21T07:36:45;8.90;99.90
22678;DHT22;26259;50.214;18.620;2023-02-21T07:39:11;8.90;99.90
22678;DHT22;26259;50.214;18.620;2023-02-21T07:41:36;8.90;99.90
22678;DHT22;26259;50.214;18.620;2023-02-21T07:44:02;9.00;99.90
22678;DHT22;26259;50.214;18.620;2023-02-21T07:46:28;9.00;99.90
22678;DHT22;26259;50.214;18.620;2023-02-21T07:48:54;9.00;99.90
22678;DHT22;26259;50.214;18.620;2023-02-21T07:51:20;9.00;99.90
22678;DHT22;26259;50.214;18.620;2023-02-21T07:53:46;9.20;99.90
22678;DHT22;26259;50.214;18.620;2023-02-21T07:56:12;9.40;99.90
22678;DHT22;26259;50.214;18.620;2023-02-21T07:58:38;9.40;99.90
22678;DHT22;26259;50.214;18.620;2023-02-21T08:01:07;9.50;99.90
22678;DHT22;26259;50.214;18.620;2023-02-21T08:03:32;9.60;99.90
22678;DHT22;26259;50.214;18.620;2023-02-21T08:05:58;9.70;99.90
22678;DHT22;26259;50.214;18.620;2023-02-21T08:08:24;9.70;99.90
22678;DHT22;26259;50.214;18.620;2023-02-21T08:10:50;9.70;99.90
22678;DHT22;26259;50.214;18.620;2023-02-21T08:13:16;9.70;99.90
22678;DHT22;26259;50.214;18.620;2023-02-21T08:15:41;9.70;99.90
22678;DHT22;26259;50.214;18.620;2023-02-21T08:18:17;9.80;99.90
22678;DHT22;26259;50.214;18.620;2023-02-21T08:20:45;9.90;99.90
22678;DHT22;26259;50.214;18.620;2023-02-21T08:23:11;9.90;99.90
22678;DHT22;26259;50.214;18.620;2023-02-21T08:25:38;9.90;99.90
22678;DHT22;26259;50.214;18.620;2023-02-21T08:28:04;9.90;99.90
22678;DHT22;26259;50.214;18.620;2023-02-21T08:30:29;9.90;99.90
22678;DHT22;26259;50.214;18.620;2023-02-21T08:32:55;9.90;99.90
22678;DHT22;26259;50.214;18.620;2023-02-21T08:35:21;9.90;99.90
22678;DHT22;26259;50.214;18.620;2023-02-21T08:37:47;10.00;99.90
22678;DHT22;26259;50.214;18.620;2023-02-21T08:40:17;10.10;99.90
22678;DHT22;26259;50.214;18.620;2023-02-21T08:42:43;10.20;99.90
22678;DHT22;26259;50.214;18.620;2023-02-21T08:45:15;10.30;99.90
22678;DHT22;26259;50.214;18.620;2023-02-21T08:47:41;10.50;99.90
22678;DHT22;26259;50.214;18.620;2023-02-21T08:50:07;10.50;99.90
22678;DHT22;26259;50.214;18.620;2023-02-21T08:52:33;10.60;99.90
22678;DHT22;26259;50.214;18.620;2023-02-21T08:54:58;10.50;99.90
22678;DHT22;26259;50.214;18.620;2023-02-21T08:57:24;10.50;99.90
22678;DHT22;26259;50.214;18.620;2023-02-21T08:59:50;10.50;99.90
22678;DHT22;26259;50.214;18.620;2023-02-21T09:02:21;10.50;99.90
22678;DHT22;26259;50.214;18.620;2023-02-21T09:04:47;10.60;99.90
22678;DHT22;26259;50.214;18.620;2023-02-21T09:07:18;10.60;99.90
22678;DHT22;26259;50.214;18.620;2023-02-21T09:09:44;10.60;99.90
22678;DHT22;26259;50.214;18.620;2023-02-21T09:12:10;10.70;99.90
22678;DHT22;26259;50.214;18.620;2023-02-21T09:14:38;10.70;99.90
22678;DHT22;26259;50.214;18.620;2023-02-21T09:17:06;10.70;99.90
22678;DHT22;26259;50.214;18.620;2023-02-21T09:19:32;10.60;99.90
22678;DHT22;26259;50.214;18.620;2023-02-21T09:21:58;10.60;99.90
22678;DHT22;26259;50.214;18.620;2023-02-21T09:24:26;10.60;99.90
22678;DHT22;26259;50.214;18.620;2023-02-21T09:26:52;10.60;99.90
22678;DHT22;26259;50.214;18.620;2023-02-21T09:29:26;10.60;99.90
22678;DHT22;26259;50.214;18.620;2023-02-21T09:31:52;10.60;99.90
22678;DHT22;26259;50.214;18.620;2023-02-21T09:34:18;10.60;99.90
22678;DHT22;26259;50.214;18.620;2023-02-21T09:36:44;10.50;99.90
22678;DHT22;26259;50.214;18.620;2023-02-21T09:39:09;10.50;99.90
22678;DHT22;26259;50.214;18.620;2023-02-21T09:41:36;10.50;99.90
22678;DHT22;26259;50.214;18.620;2023-02-21T09:44:04;10.50;99.90
22678;DHT22;26259;50.214;18.620;2023-02-21T09:49:05;10.60;99.90
22678;DHT22;26259;50.214;18.620;2023-02-21T09:51:32;10.60;99.90
22678;DHT22;26259;50.214;18.620;2023-02-21T09:53:59;10.60;99.90
22678;DHT22;26259;50.214;18.620;2023-02-21T09:56:32;10.60;99.90
22678;DHT22;26259;50.214;18.620;2023-02-21T09:58:59;10.60;99.90
22678;DHT22;26259;50.214;18.620;2023-02-21T10:04:20;10.50;99.90
22678;DHT22;26259;50.214;18.620;2023-02-21T10:12:29;10.50;99.90
22678;DHT22;26259;50.214;18.620;2023-02-21T10:15:17;10.70;99.90
22678;DHT22;26259;50.214;18.620;2023-02-21T10:17:48;10.70;99.90
22678;DHT22;26259;50.214;18.620;2023-02-21T10:20:38;10.70;99.90
22678;DHT22;26259;50.214;18.620;2023-02-21T10:23:15;10.70;99.90
22678;DHT22;26259;50.214;18.620;2023-02-21T10:25:45;10.60;99.90
22678;DHT22;26259;50.214;18.620;2023-02-21T10:28:23;10.60;99.90
22678;DHT22;26259;50.214;18.620;2023-02-21T10:30:52;10.60;99.90
22678;DHT22;26259;50.214;18.620;2023-02-21T10:33:19;10.70;99.90
22678;DHT22;26259;50.214;18.620;2023-02-21T10:35:45;10.70;99.90
22678;DHT22;26259;50.214;18.620;2023-02-21T10:38:16;10.70;99.90
22678;DHT22;26259;50.214;18.620;2023-02-21T10:43:35;10.80;99.90
22678;DHT22;26259;50.214;18.620;2023-02-21T10:46:24;10.80;99.90
22678;DHT22;26259;50.214;18.620;2023-02-21T10:48:53;10.90;99.90
22678;DHT22;26259;50.214;18.620;2023-02-21T10:51:30;10.90;99.90
22678;DHT22;26259;50.214;18.620;2023-02-21T10:54:20;11.00;99.90
22678;DHT22;26259;50.214;18.620;2023-02-21T10:56:47;11.10;99.90
22678;DHT22;26259;50.214;18.620;2023-02-21T10:59:40;11.10;99.90
22678;DHT22;26259;50.214;18.620;2023-02-21T11:04:54;11.00;99.90
22678;DHT22;26259;50.214;18.620;2023-02-21T11:07:21;11.00;99.90
22678;DHT22;26259;50.214;18.620;2023-02-21T11:09:49;10.90;99.90
22678;DHT22;26259;50.214;18.620;2023-02-21T11:17:26;11.00;99.90
22678;DHT22;26259;50.214;18.620;2023-02-21T11:20:20;11.00;99.90
22678;DHT22;26259;50.214;18.620;2023-02-21T11:22:49;11.20;99.90
22678;DHT22;26259;50.214;18.620;2023-02-21T11:25:40;11.30;99.90
22678;DHT22;26259;50.214;18.620;2023-02-21T11:28:27;11.50;99.90
22678;DHT22;26259;50.214;18.620;2023-02-21T11:33:24;11.30;99.90
22678;DHT22;26259;50.214;18.620;2023-02-21T11:35:51;11.20;99.90
22678;DHT22;26259;50.214;18.620;2023-02-21T11:38:41;11.00;99.90
22678;DHT22;26259;50.214;18.620;2023-02-21T11:44:39;10.70;99.90
22678;DHT22;26259;50.214;18.620;2023-02-21T11:47:20;10.90;99.90
22678;DHT22;26259;50.214;18.620;2023-02-21T11:49:49;11.00;99.90
22678;DHT22;26259;50.214;18.620;2023-02-21T11:52:54;11.00;99.90
22678;DHT22;26259;50.214;18.620;2023-02-21T11:55:23;11.00;99.90
22678;DHT22;26259;50.214;18.620;2023-02-21T12:09:25;11.40;99.90
22678;DHT22;26259;50.214;18.620;2023-02-21T12:12:28;11.20;99.90
22678;DHT22;26259;50.214;18.620;2023-02-21T12:15:13;11.10;99.90
22678;DHT22;26259;50.214;18.620;2023-02-21T12:18:16;11.10;99.90
22678;DHT22;26259;50.214;18.620;2023-02-21T12:23:46;11.10;99.90
22678;DHT22;26259;50.214;18.620;2023-02-21T12:26:32;11.10;99.90
22678;DHT22;26259;50.214;18.620;2023-02-21T12:29:40;11.10;99.90
22678;DHT22;26259;50.214;18.620;2023-02-21T12:32:19;11.10;99.90
22678;DHT22;26259;50.214;18.620;2023-02-21T12:41:13;10.80;99.90
22678;DHT22;26259;50.214;18.620;2023-02-21T12:43:34;10.50;99.90
22678;DHT22;26259;50.214;18.620;2023-02-21T12:46:06;10.20;99.90
22678;DHT22;26259;50.214;18.620;2023-02-21T12:48:44;10.20;99.90
22678;DHT22;26259;50.214;18.620;2023-02-21T12:51:17;10.10;99.90
22678;DHT22;26259;50.214;18.620;2023-02-21T12:56:27;10.00;99.90
22678;DHT22;26259;50.214;18.620;2023-02-21T12:58:57;9.80;99.90
22678;DHT22;26259;50.214;18.620;2023-02-21T13:01:28;9.70;99.90
22678;DHT22;26259;50.214;18.620;2023-02-21T13:06:57;9.60;99.90
22678;DHT22;26259;50.214;18.620;2023-02-21T13:09:49;9.50;99.90
22678;DHT22;26259;50.214;18.620;2023-02-21T13:12:48;9.50;99.90
22678;DHT22;26259;50.214;18.620;2023-02-21T13:15:15;9.40;99.90
22678;DHT22;26259;50.214;18.620;2023-02-21T13:17:42;9.40;99.90
22678;DHT22;26259;50.214;18.620;2023-02-21T13:20:14;9.50;99.90
22678;DHT22;26259;50.214;18.620;2023-02-21T13:28:53;9.80;99.90
22678;DHT22;26259;50.214;18.620;2023-02-21T13:31:33;9.70;99.90
22678;DHT22;26259;50.214;18.620;2023-02-21T13:34:06;9.40;99.90
22678;DHT22;26259;50.214;18.620;2023-02-21T13:39:20;9.00;99.90
22678;DHT22;26259;50.214;18.620;2023-02-21T13:41:52;9.00;99.90
22678;DHT22;26259;50.214;18.620;2023-02-21T13:44:33;9.10;99.90
22678;DHT22;26259;50.214;18.620;2023-02-21T13:47:12;9.20;99.90
22678;DHT22;26259;50.214;18.620;2023-02-21T13:49:55;9.30;99.90
22678;DHT22;26259;50.214;18.620;2023-02-21T13:52:34;9.40;99.90
22678;DHT22;26259;50.214;18.620;2023-02-21T14:11:45;9.20;99.90
22678;DHT22;26259;50.214;18.620;2023-02-21T14:14:27;9.20;99.90
22678;DHT22;26259;50.214;18.620;2023-02-21T14:17:06;9.30;99.90
22678;DHT22;26259;50.214;18.620;2023-02-21T14:20:02;9.40;99.90
22678;DHT22;26259;50.214;18.620;2023-02-21T14:22:31;9.50;99.90
22678;DHT22;26259;50.214;18.620;2023-02-21T14:25:18;9.60;99.90
22678;DHT22;26259;50.214;18.620;2023-02-21T14:27:45;9.60;99.90
22678;DHT22;26259;50.214;18.620;2023-02-21T14:40:34;9.80;99.90
22678;DHT22;26259;50.214;18.620;2023-02-21T14:54:36;9.90;99.90
22678;DHT22;26259;50.214;18.620;2023-02-21T14:57:27;9.90;99.90
22678;DHT22;26259;50.214;18.620;2023-02-21T15:05:26;9.90;99.90
22678;DHT22;26259;50.214;18.620;2023-02-21T15:10:38;9.80;99.90
22678;DHT22;26259;50.214;18.620;2023-02-21T15:13:04;9.70;99.90
22678;DHT22;26259;50.214;18.620;2023-02-21T15:15:37;9.70;99.90
22678;DHT22;26259;50.214;18.620;2023-02-21T15:18:24;9.70;99.90
22678;DHT22;26259;50.214;18.620;2023-02-21T15:23:35;9.70;99.90
22678;DHT22;26259;50.214;18.620;2023-02-21T15:28:41;9.70;99.90
22678;DHT22;26259;50.214;18.620;2023-02-21T15:31:10;9.70;99.90
22678;DHT22;26259;50.214;18.620;2023-02-21T15:33:39;9.70;99.90
22678;DHT22;26259;50.214;18.620;2023-02-21T15:36:19;9.60;99.90
22678;DHT22;26259;50.214;18.620;2023-02-21T15:38:49;9.60;99.90
22678;DHT22;26259;50.214;18.620;2023-02-21T15:41:41;9.60;99.90
22678;DHT22;26259;50.214;18.620;2023-02-21T15:46:49;9.70;99.90
22678;DHT22;26259;50.214;18.620;2023-02-21T15:49:23;9.70;99.90
22678;DHT22;26259;50.214;18.620;2023-02-21T15:51:50;9.80;99.90
22678;DHT22;26259;50.214;18.620;2023-02-21T15:56:41;9.80;99.90
22678;DHT22;26259;50.214;18.620;2023-02-21T15:59:11;9.80;99.90
22678;DHT22;26259;50.214;18.620;2023-02-21T16:01:38;9.80;99.90
22678;DHT22;26259;50.214;18.620;2023-02-21T16:04:21;9.80;99.90
22678;DHT22;26259;50.214;18.620;2023-02-21T16:06:53;9.80;99.90
22678;DHT22;26259;50.214;18.620;2023-02-21T16:09:23;9.80;99.90
22678;DHT22;26259;50.214;18.620;2023-02-21T16:14:46;9.80;99.90
22678;DHT22;26259;50.214;18.620;2023-02-21T16:19:53;9.80;99.90
22678;DHT22;26259;50.214;18.620;2023-02-21T16:25:14;9.80;99.90
22678;DHT22;26259;50.214;18.620;2023-02-21T16:27:43;9.70;99.90
22678;DHT22;26259;50.214;18.620;2023-02-21T16:30:18;9.70;99.90
22678;DHT22;26259;50.214;18.620;2023-02-21T16:32:45;9.70;99.90
22678;DHT22;26259;50.214;18.620;2023-02-21T16:35:18;9.70;99.90
22678;DHT22;26259;50.214;18.620;2023-02-21T16:37:46;9.60;99.90
22678;DHT22;26259;50.214;18.620;2023-02-21T16:40:18;9.60;99.90
22678;DHT22;26259;50.214;18.620;2023-02-21T16:42:48;9.60;99.90
22678;DHT22;26259;50.214;18.620;2023-02-21T16:45:14;9.50;99.90
22678;DHT22;26259;50.214;18.620;2023-02-21T16:47:40;9.30;99.90
22678;DHT22;26259;50.214;18.620;2023-02-21T16:50:20;9.30;99.90
22678;DHT22;26259;50.214;18.620;2023-02-21T16:52:46;9.20;99.90
22678;DHT22;26259;50.214;18.620;2023-02-21T16:55:18;9.20;99.90
22678;DHT22;26259;50.214;18.620;2023-02-21T16:57:49;9.10;99.90
22678;DHT22;26259;50.214;18.620;2023-02-21T17:00:17;9.00;99.90
22678;DHT22;26259;50.214;18.620;2023-02-21T17:02:45;9.00;99.90
22678;DHT22;26259;50.214;18.620;2023-02-21T17:05:11;8.90;99.90
22678;DHT22;26259;50.214;18.620;2023-02-21T17:07:37;8.90;99.90
22678;DHT22;26259;50.214;18.620;2023-02-21T17:10:03;8.70;99.90
22678;DHT22;26259;50.214;18.620;2023-02-21T17:12:29;8.70;99.90
22678;DHT22;26259;50.214;18.620;2023-02-21T17:14:55;8.80;99.90
22678;DHT22;26259;50.214;18.620;2023-02-21T17:17:21;8.80;99.90
22678;DHT22;26259;50.214;18.620;2023-02-21T17:19:46;8.70;99.90
22678;DHT22;26259;50.214;18.620;2023-02-21T17:22:12;8.70;99.90
22678;DHT22;26259;50.214;18.620;2023-02-21T17:24:37;8.70;99.90
22678;DHT22;26259;50.214;18.620;2023-02-21T17:27:04;8.70;99.90
22678;DHT22;26259;50.214;18.620;2023-02-21T17:29:29;8.70;99.90
22678;DHT22;26259;50.214;18.620;2023-02-21T17:31:55;8.70;99.90
22678;DHT22;26259;50.214;18.620;2023-02-21T17:34:21;8.70;99.90
22678;DHT22;26259;50.214;18.620;2023-02-21T17:36:48;8.70;99.90
22678;DHT22;26259;50.214;18.620;2023-02-21T17:39:16;8.70;99.90
22678;DHT22;26259;50.214;18.620;2023-02-21T17:41:49;8.70;99.90
22678;DHT22;26259;50.214;18.620;2023-02-21T17:44:15;8.70;99.90
22678;DHT22;26259;50.214;18.620;2023-02-21T17:46:50;8.70;99.90
22678;DHT22;26259;50.214;18.620;2023-02-21T17:49:19;8.60;99.90
22678;DHT22;26259;50.214;18.620;2023-02-21T17:51:45;8.50;99.90
22678;DHT22;26259;50.214;18.620;2023-02-21T17:54:12;8.50;99.90
22678;DHT22;26259;50.214;18.620;2023-02-21T17:56:38;8.50;99.90
22678;DHT22;26259;50.214;18.620;2023-02-21T17:59:04;8.50;99.90
22678;DHT22;26259;50.214;18.620;2023-02-21T18:01:30;8.40;99.90
22678;DHT22;26259;50.214;18.620;2023-02-21T18:03:56;8.40;99.90
22678;DHT22;26259;50.214;18.620;2023-02-21T18:06:22;8.30;99.90
22678;DHT22;26259;50.214;18.620;2023-02-21T18:08:48;8.30;99.90
22678;DHT22;26259;50.214;18.620;2023-02-21T18:11:16;8.20;99.90
22678;DHT22;26259;50.214;18.620;2023-02-21T18:13:41;8.20;99.90
22678;DHT22;26259;50.214;18.620;2023-02-21T18:16:07;8.30;99.90
22678;DHT22;26259;50.214;18.620;2023-02-21T18:18:33;8.20;99.90
22678;DHT22;26259;50.214;18.620;2023-02-21T18:20:59;8.20;99.90
22678;DHT22;26259;50.214;18.620;2023-02-21T18:23:29;8.10;99.90
22678;DHT22;26259;50.214;18.620;2023-02-21T18:25:56;8.00;99.90
22678;DHT22;26259;50.214;18.620;2023-02-21T18:28:22;8.00;99.90
22678;DHT22;26259;50.214;18.620;2023-02-21T18:30:47;8.00;99.90
22678;DHT22;26259;50.214;18.620;2023-02-21T18:33:16;8.00;99.90
22678;DHT22;26259;50.214;18.620;2023-02-21T18:35:41;8.00;99.90
22678;DHT22;26259;50.214;18.620;2023-02-21T18:38:07;8.00;99.90
22678;DHT22;26259;50.214;18.620;2023-02-21T18:40:32;8.00;99.90
22678;DHT22;26259;50.214;18.620;2023-02-21T18:43:03;8.00;99.90
22678;DHT22;26259;50.214;18.620;2023-02-21T18:45:30;8.00;99.90
22678;DHT22;26259;50.214;18.620;2023-02-21T18:47:59;7.90;99.90
22678;DHT22;26259;50.214;18.620;2023-02-21T18:50:25;7.90;99.90
22678;DHT22;26259;50.214;18.620;2023-02-21T18:52:50;7.90;99.90
22678;DHT22;26259;50.214;18.620;2023-02-21T18:55:16;7.80;99.90
22678;DHT22;26259;50.214;18.620;2023-02-21T18:57:45;7.80;99.90
22678;DHT22;26259;50.214;18.620;2023-02-21T19:00:15;7.80;99.90
22678;DHT22;26259;50.214;18.620;2023-02-21T19:02:40;7.90;99.90